createdAt,value
2018-01-15T00:01:09.278Z,101388.89
2018-01-15T00:03:39.099Z,101380.55
2018-01-15T00:06:08.388Z,101376.60
2018-01-15T00:08:37.675Z,101371.68
2018-01-15T00:11:06.945Z,101372.99
2018-01-15T00:13:37.122Z,101361.59
2018-01-15T00:16:06.384Z,101358.47
2018-01-15T00:18:35.917Z,101357.11
2018-01-15T00:21:05.222Z,101358.28
2018-01-15T00:23:34.622Z,101353.83
2018-01-15T00:26:03.885Z,101357.23
2018-01-15T00:28:34.039Z,101358.06
2018-01-15T00:31:03.308Z,101340.14
2018-01-15T00:33:33.356Z,101335.81
2018-01-15T00:36:02.674Z,101339.30
2018-01-15T00:38:31.952Z,101340.58
2018-01-15T00:41:01.235Z,101325.77
2018-01-15T00:43:30.538Z,101326.17
2018-01-15T00:45:59.973Z,101318.32
2018-01-15T00:48:29.254Z,101321.37
2018-01-15T00:50:58.520Z,101323.09
2018-01-15T00:53:28.553Z,101321.78
2018-01-15T00:55:58.580Z,101326.14
2018-01-15T00:58:28.264Z,101318.79
2018-01-15T01:00:58.305Z,101314.09
2018-01-15T01:03:27.572Z,101307.27
2018-01-15T01:05:56.828Z,101299.20
2018-01-15T01:08:26.121Z,101298.99
2018-01-15T01:10:55.384Z,101302.64
2018-01-15T01:13:25.438Z,101296.25
2018-01-15T01:15:54.719Z,101298.11
2018-01-15T01:18:24.129Z,101306.10
2018-01-15T01:20:53.751Z,101303.52
2018-01-15T01:23:23.012Z,101298.25
2018-01-15T01:25:53.058Z,101298.26
2018-01-15T01:28:22.326Z,101290.81
2018-01-15T01:30:53.143Z,101292.13
2018-01-15T01:33:22.487Z,101297.82
2018-01-15T01:35:51.770Z,101290.44
2018-01-15T01:38:21.801Z,101286.98
2018-01-15T01:40:51.847Z,101290.87
2018-01-15T01:43:21.119Z,101277.71
2018-01-15T01:45:51.148Z,101284.09
2018-01-15T01:48:20.426Z,101279.21
2018-01-15T01:50:50.474Z,101273.38
2018-01-15T01:53:19.744Z,101270.64
2018-01-15T01:55:49.778Z,101265.28
2018-01-15T01:58:19.817Z,101261.28
2018-01-15T02:00:49.078Z,101254.14
2018-01-15T02:03:19.123Z,101243.10
2018-01-15T02:05:48.390Z,101244.30
2018-01-15T02:08:17.669Z,101244.27
2018-01-15T02:10:46.951Z,101242.42
2018-01-15T02:13:16.207Z,101234.13
2018-01-15T02:15:46.252Z,101235.33
2018-01-15T02:18:15.508Z,101241.30
2018-01-15T02:20:45.570Z,101235.55
2018-01-15T02:23:14.586Z,101235.05
2018-01-15T02:25:43.859Z,101226.14
2018-01-15T02:28:13.178Z,101220.42
2018-01-15T02:30:42.511Z,101215.55
2018-01-15T02:33:11.786Z,101218.09
2018-01-15T02:35:41.054Z,101216.34
2018-01-15T02:38:10.346Z,101221.11
2018-01-15T02:40:40.384Z,101205.36
2018-01-15T02:43:09.706Z,101201.86
2018-01-15T02:45:39.042Z,101193.48
2018-01-15T02:48:08.500Z,101199.59
2018-01-15T02:50:37.791Z,101193.48
2018-01-15T02:53:07.057Z,101187.77
2018-01-15T02:55:36.552Z,101188.69
2018-01-15T02:58:06.066Z,101186.06
2018-01-15T03:00:35.454Z,101184.72
2018-01-15T03:03:04.776Z,101180.70
2018-01-15T03:05:34.857Z,101178.05
2018-01-15T03:08:04.108Z,101166.58
2018-01-15T03:10:33.384Z,101161.69
2018-01-15T03:13:04.188Z,101148.08
2018-01-15T03:15:33.832Z,101142.31
2018-01-15T03:18:03.889Z,101146.55
2018-01-15T03:20:33.302Z,101149.17
2018-01-15T03:23:02.556Z,101149.97
2018-01-15T03:25:32.576Z,101141.23
2018-01-15T03:28:02.738Z,101138.22
2018-01-15T03:30:32.013Z,101137.25
2018-01-15T03:33:01.342Z,101123.62
2018-01-15T03:35:30.616Z,101123.66
2018-01-15T03:37:59.932Z,101116.24
2018-01-15T03:40:29.195Z,101118.91
2018-01-15T03:42:59.224Z,101115.89
2018-01-15T03:45:32.200Z,101108.08
2018-01-15T03:48:02.303Z,101098.46
2018-01-15T03:50:32.340Z,101095.75
2018-01-15T03:53:02.368Z,101092.17
2018-01-15T03:55:34.408Z,101089.53
2018-01-15T03:58:03.869Z,101082.98
2018-01-15T04:00:32.902Z,101076.34
2018-01-15T04:03:02.168Z,101071.11
2018-01-15T04:05:31.565Z,101068.09
2018-01-15T04:08:00.838Z,101063.33
2018-01-15T04:10:30.952Z,101055.46
2018-01-15T04:13:00.422Z,101048.39
2018-01-15T04:15:29.702Z,101052.80
2018-01-15T04:17:58.974Z,101053.67
2018-01-15T04:20:29.001Z,101053.67
2018-01-15T04:22:58.286Z,101048.38
2018-01-15T04:25:27.559Z,101053.98
2018-01-15T04:27:56.820Z,101056.16
2018-01-15T04:30:26.080Z,101056.12
2018-01-15T04:32:55.356Z,101057.91
2018-01-15T04:35:25.393Z,101042.81
2018-01-15T04:37:55.577Z,101040.48
2018-01-15T04:40:24.841Z,101032.98
2018-01-15T04:42:54.155Z,101034.23
2018-01-15T04:45:23.420Z,101024.05
2018-01-15T04:47:53.521Z,101014.75
2018-01-15T04:50:22.757Z,101008.88
2018-01-15T04:52:52.204Z,100999.95
2018-01-15T04:55:21.479Z,100997.07
2018-01-15T04:57:50.771Z,100996.52
2018-01-15T05:00:20.128Z,100997.55
2018-01-15T05:02:50.160Z,100997.70
2018-01-15T05:05:20.210Z,100992.18
2018-01-15T05:07:49.518Z,100990.98
2018-01-15T05:10:18.919Z,100994.13
2018-01-15T05:12:48.205Z,100993.36
2018-01-15T05:15:17.687Z,100996.45
2018-01-15T05:17:47.716Z,100989.59
2018-01-15T05:20:16.268Z,100993.55
2018-01-15T05:22:45.524Z,100991.00
2018-01-15T05:25:14.818Z,100984.50
2018-01-15T05:27:44.088Z,100981.49
2018-01-15T05:30:14.150Z,100971.97
2018-01-15T05:32:43.828Z,100965.47
2018-01-15T05:35:13.123Z,100969.88
2018-01-15T05:37:43.144Z,100964.23
2018-01-15T05:40:12.565Z,100965.98
2018-01-15T05:42:41.832Z,100957.70
2018-01-15T05:45:11.886Z,100962.90
2018-01-15T05:47:41.179Z,100955.92
2018-01-15T05:50:10.461Z,100954.58
2018-01-15T05:52:40.502Z,100955.45
2018-01-15T05:55:09.787Z,100944.52
2018-01-15T05:57:39.078Z,100950.14
2018-01-15T06:00:08.883Z,100949.23
2018-01-15T06:02:38.252Z,100945.31
2018-01-15T06:05:07.721Z,100938.73
2018-01-15T06:07:36.980Z,100938.27
2018-01-15T06:10:06.250Z,100930.30
2018-01-15T06:12:35.735Z,100928.95
2018-01-15T06:15:05.162Z,100923.69
2018-01-15T06:17:34.438Z,100914.89
2018-01-15T06:20:03.732Z,100916.16
2018-01-15T06:22:33.083Z,100903.88
2018-01-15T06:25:02.350Z,100900.73
2018-01-15T06:27:31.637Z,100899.87
2018-01-15T06:30:00.961Z,100899.78
2018-01-15T06:32:30.240Z,100893.60
2018-01-15T06:34:59.548Z,100891.77
2018-01-15T06:37:29.051Z,100886.10
2018-01-15T06:39:58.328Z,100879.12
2018-01-15T06:42:27.813Z,100877.38
2018-01-15T06:44:57.852Z,100875.69
2018-01-15T06:47:27.130Z,100868.34
2018-01-15T06:49:57.166Z,100857.02
2018-01-15T06:52:27.099Z,100848.81
2018-01-15T06:54:56.375Z,100849.29
2018-01-15T06:57:26.428Z,100852.78
2018-01-15T06:59:55.698Z,100844.58
2018-01-15T07:02:25.749Z,100846.28
2018-01-15T07:04:55.040Z,100846.71
2018-01-15T07:07:24.300Z,100833.16
2018-01-15T07:09:54.337Z,100833.98
2018-01-15T07:12:23.610Z,100832.20
2018-01-15T07:14:52.890Z,100826.49
2018-01-15T07:17:21.931Z,100826.45
2018-01-15T07:19:51.364Z,100825.89
2018-01-15T07:22:20.882Z,100818.78
2018-01-15T07:24:50.153Z,100814.77
2018-01-15T07:27:19.425Z,100812.50
2018-01-15T07:29:49.472Z,100807.96
2018-01-15T07:32:18.767Z,100806.55
2018-01-15T07:34:48.066Z,100810.39
2018-01-15T07:37:18.097Z,100807.64
2018-01-15T07:39:47.364Z,100805.37
2018-01-15T07:42:17.484Z,100804.80
2018-01-15T07:44:47.528Z,100792.92
2018-01-15T07:47:16.806Z,100782.31
2018-01-15T07:49:46.878Z,100785.23
2018-01-15T07:52:16.272Z,100788.14
2018-01-15T07:54:45.848Z,100781.88
2018-01-15T07:57:15.124Z,100787.47
2018-01-15T07:59:45.212Z,100786.05
2018-01-15T08:02:14.528Z,100787.19
2018-01-15T08:04:44.208Z,100790.91
2018-01-15T08:07:13.498Z,100778.48
2018-01-15T08:09:42.770Z,100773.92
2018-01-15T08:12:12.843Z,100774.94
2018-01-15T08:14:41.872Z,100768.22
2018-01-15T08:17:11.202Z,100767.95
2018-01-15T08:19:40.489Z,100764.26
2018-01-15T08:22:10.538Z,100760.99
2018-01-15T08:24:39.833Z,100757.39
2018-01-15T08:27:08.920Z,100752.05
2018-01-15T08:29:38.208Z,100751.93
2018-01-15T08:32:07.496Z,100757.12
2018-01-15T08:34:37.025Z,100749.59
2018-01-15T08:37:06.296Z,100746.84
2018-01-15T08:39:36.425Z,100738.81
2018-01-15T08:42:06.565Z,100746.19
2018-01-15T08:44:35.833Z,100739.09
2018-01-15T08:47:06.157Z,100736.86
2018-01-15T08:49:36.190Z,100737.63
2018-01-15T08:52:06.243Z,100729.20
2018-01-15T08:54:35.501Z,100723.03
2018-01-15T08:57:05.562Z,100725.16
2018-01-15T08:59:34.816Z,100717.17
2018-01-15T09:02:05.330Z,100707.87
2018-01-15T09:04:34.893Z,100701.92
2018-01-15T09:07:04.905Z,100697.79
2018-01-15T09:09:34.184Z,100695.37
2018-01-15T09:12:04.662Z,100688.53
2018-01-15T09:14:34.015Z,100686.47
2018-01-15T09:17:04.067Z,100682.69
2018-01-15T09:19:33.336Z,100680.69
2018-01-15T09:22:02.611Z,100677.33
2018-01-15T09:24:32.657Z,100678.72
2018-01-15T09:27:01.944Z,100671.33
2018-01-15T09:29:31.991Z,100664.39
2018-01-15T09:32:01.274Z,100656.19
2018-01-15T09:34:30.623Z,100649.91
2018-01-15T09:36:59.899Z,100644.19
2018-01-15T09:39:29.396Z,100639.86
2018-01-15T09:41:58.661Z,100646.23
2018-01-15T09:44:29.024Z,100645.80
2018-01-15T09:46:58.428Z,100642.48
2018-01-15T09:49:27.730Z,100637.12
2018-01-15T09:51:56.993Z,100637.69
2018-01-15T09:54:27.038Z,100637.47
2018-01-15T09:56:56.306Z,100630.24
2018-01-15T09:59:26.344Z,100628.97
2018-01-15T10:01:56.264Z,100628.70
2018-01-15T10:04:25.558Z,100617.80
2018-01-15T10:06:54.819Z,100620.86
2018-01-15T10:09:24.122Z,100612.91
2018-01-15T10:11:53.915Z,100604.41
2018-01-15T10:14:23.260Z,100597.63
2018-01-15T10:16:53.311Z,100597.84
2018-01-15T10:19:22.400Z,100594.22
2018-01-15T10:21:51.661Z,100588.41
2018-01-15T10:24:21.110Z,100588.69
2018-01-15T10:26:50.385Z,100591.28
2018-01-15T10:29:20.633Z,100576.38
2018-01-15T10:31:50.152Z,100573.55
2018-01-15T10:34:19.420Z,100566.11
2018-01-15T10:36:48.854Z,100567.60
2018-01-15T10:39:18.328Z,100556.97
2018-01-15T10:41:47.861Z,100551.70
2018-01-15T10:44:17.158Z,100537.48
2018-01-15T10:46:46.786Z,100539.86
2018-01-15T10:49:16.064Z,100528.73
2018-01-15T10:51:45.482Z,100527.50
2018-01-15T10:54:14.750Z,100514.72
2018-01-15T10:56:44.026Z,100506.72
2018-01-15T10:59:14.073Z,100488.77
2018-01-15T11:01:43.389Z,100489.25
2018-01-15T11:04:12.668Z,100484.03
2018-01-15T11:06:42.706Z,100461.27
2018-01-15T11:09:12.108Z,100447.89
2018-01-15T11:11:41.496Z,100445.59
2018-01-15T11:14:10.792Z,100444.98
2018-01-15T11:16:40.226Z,100442.83
2018-01-15T11:19:09.494Z,100435.95
2018-01-15T11:21:39.521Z,100431.56
2018-01-15T11:24:08.833Z,100425.06
2018-01-15T11:26:41.892Z,100418.09
2018-01-15T11:29:12.044Z,100403.27
2018-01-15T11:31:41.558Z,100403.52
2018-01-15T11:34:10.946Z,100399.44
2018-01-15T11:36:40.208Z,100385.21
2018-01-15T11:39:09.481Z,100380.53
2018-01-15T11:41:38.766Z,100371.47
2018-01-15T11:44:08.059Z,100359.34
2018-01-15T11:46:37.352Z,100349.69
2018-01-15T11:49:06.825Z,100343.61
2018-01-15T11:51:36.964Z,100333.13
2018-01-15T11:54:06.296Z,100322.60
2018-01-15T11:56:35.643Z,100314.52
2018-01-15T11:59:05.703Z,100298.11
2018-01-15T12:01:34.974Z,100291.75
2018-01-15T12:04:05.229Z,100282.72
2018-01-15T12:06:34.502Z,100281.83
2018-01-15T12:09:04.298Z,100270.77
2018-01-15T12:11:34.341Z,100254.20
2018-01-15T12:14:03.613Z,100249.12
2018-01-15T12:16:33.677Z,100240.23
2018-01-15T12:19:02.976Z,100229.05
2018-01-15T12:21:32.250Z,100213.77
2018-01-15T12:24:02.290Z,100203.31
2018-01-15T12:26:31.575Z,100197.97
2018-01-15T12:29:00.853Z,100182.64
2018-01-15T12:31:30.911Z,100181.07
2018-01-15T12:34:00.206Z,100164.66
2018-01-15T12:36:29.750Z,100145.83
2018-01-15T12:38:59.010Z,100147.55
2018-01-15T12:41:28.298Z,100129.91
2018-01-15T12:43:58.316Z,100120.11
2018-01-15T12:46:27.589Z,100101.16
2018-01-15T12:48:58.585Z,100096.16
2018-01-15T12:51:27.859Z,100091.99
2018-01-15T12:53:57.120Z,100078.31
2018-01-15T12:56:26.502Z,100071.94
2018-01-15T12:58:55.781Z,100067.80
2018-01-15T13:01:25.068Z,100050.13
2018-01-15T13:03:54.325Z,100046.11
2018-01-15T13:06:22.855Z,100027.61
2018-01-15T13:09:02.421Z,100016.17
2018-01-15T13:11:31.760Z,100018.38
2018-01-15T13:14:01.190Z,100009.24
2018-01-15T13:16:30.441Z,100005.65
2018-01-15T13:18:59.752Z,99995.16
2018-01-15T13:21:29.018Z,99991.67
2018-01-15T13:23:58.288Z,99982.10
2018-01-15T13:26:28.312Z,99984.38
2018-01-15T13:28:57.565Z,99966.44
2018-01-15T13:31:26.902Z,99956.80
2018-01-15T13:33:57.054Z,99945.03
2018-01-15T13:36:26.312Z,99936.69
2018-01-15T13:38:56.339Z,99936.85
2018-01-15T13:41:26.373Z,99936.98
2018-01-15T13:43:56.607Z,99934.44
2018-01-15T13:46:25.882Z,99945.05
2018-01-15T13:48:55.909Z,99949.83
2018-01-15T13:51:25.171Z,99956.92
2018-01-15T13:53:54.428Z,99946.40
2018-01-15T13:56:23.692Z,99955.94
2018-01-15T13:58:53.775Z,99945.78
2018-01-15T14:01:23.265Z,99944.09
2018-01-15T14:03:52.522Z,99924.41
2018-01-15T14:06:22.764Z,99917.45
2018-01-15T14:08:52.047Z,99899.80
2018-01-15T14:11:22.407Z,99889.08
2018-01-15T14:13:51.658Z,99883.31
2018-01-15T14:16:22.175Z,99871.58
2018-01-15T14:18:51.532Z,99860.57
2018-01-15T14:21:20.790Z,99842.91
2018-01-15T14:23:50.945Z,99836.48
2018-01-15T14:26:20.389Z,99824.91
2018-01-15T14:28:49.660Z,99820.45
2018-01-15T14:31:18.945Z,99818.87
2018-01-15T14:33:48.379Z,99817.75
2018-01-15T14:36:17.770Z,99809.84
2018-01-15T14:38:47.057Z,99803.67
2018-01-15T14:41:16.379Z,99797.22
2018-01-15T14:43:46.073Z,99793.27
2018-01-15T14:46:15.406Z,99773.25
2018-01-15T14:48:44.673Z,99766.13
2018-01-15T14:51:13.919Z,99753.55
2018-01-15T14:53:43.943Z,99751.50
2018-01-15T14:56:13.381Z,99744.58
2018-01-15T14:58:42.656Z,99738.81
2018-01-15T15:01:12.680Z,99736.64
2018-01-15T15:03:42.835Z,99724.88
2018-01-15T15:06:12.441Z,99706.03
2018-01-15T15:08:41.741Z,99706.13
2018-01-15T15:11:11.021Z,99692.59
2018-01-15T15:13:40.310Z,99680.40
2018-01-15T15:16:10.485Z,99670.95
2018-01-15T15:18:39.899Z,99669.41
2018-01-15T15:21:09.362Z,99653.30
2018-01-15T15:23:38.786Z,99653.95
2018-01-15T15:26:07.935Z,99643.09
2018-01-15T15:28:38.128Z,99634.39
2018-01-15T15:31:07.463Z,99618.19
2018-01-15T15:33:37.548Z,99613.51
2018-01-15T15:36:07.346Z,99610.48
2018-01-15T15:38:36.730Z,99602.75
2018-01-15T15:41:06.051Z,99596.75
2018-01-15T15:43:35.435Z,99592.80
2018-01-15T15:46:04.857Z,99587.03
2018-01-15T15:48:34.121Z,99561.12
2018-01-15T15:51:04.857Z,99561.61
2018-01-15T15:53:34.378Z,99551.14
2018-01-15T15:56:03.856Z,99543.14
2018-01-15T15:58:33.222Z,99523.27
2018-01-15T16:01:02.595Z,99516.59
2018-01-15T16:03:32.131Z,99519.22
2018-01-15T16:06:01.787Z,99497.61
2018-01-15T16:08:31.112Z,99487.64
2018-01-15T16:11:00.514Z,99476.11
2018-01-15T16:13:29.909Z,99487.83
2018-01-15T16:15:59.391Z,99467.43
2018-01-15T16:18:29.553Z,99464.22
2018-01-15T16:20:58.817Z,99449.20
2018-01-15T16:23:28.444Z,99434.64
2018-01-15T16:25:57.962Z,99439.84
2018-01-15T16:28:27.572Z,99420.07
2018-01-15T16:30:56.981Z,99417.37
2018-01-15T16:33:26.419Z,99416.41
2018-01-15T16:35:55.692Z,99406.61
2018-01-15T16:38:24.950Z,99409.72
2018-01-15T16:40:54.226Z,99401.31
2018-01-15T16:43:24.263Z,99399.81
2018-01-15T16:45:53.560Z,99398.36
2018-01-15T16:48:23.045Z,99395.54
2018-01-15T16:50:53.061Z,99384.89
2018-01-15T16:53:22.530Z,99363.66
2018-01-15T16:55:51.953Z,99363.13
2018-01-15T16:58:21.531Z,99360.38
2018-01-15T17:00:51.625Z,99347.16
2018-01-15T17:03:21.214Z,99332.17
2018-01-15T17:05:51.225Z,99326.97
2018-01-15T17:08:21.252Z,99327.00
2018-01-15T17:10:51.276Z,99309.84
2018-01-15T17:13:21.300Z,99306.41
2018-01-15T17:15:50.557Z,99296.38
2018-01-15T17:18:20.027Z,99283.84
2018-01-15T17:20:49.339Z,99280.74
2018-01-15T17:23:18.633Z,99265.83
2018-01-15T17:25:47.900Z,99255.85
2018-01-15T17:28:17.934Z,99257.35
2018-01-15T17:30:47.358Z,99255.08
2018-01-15T17:33:16.864Z,99248.91
2018-01-15T17:35:46.154Z,99248.91
2018-01-15T17:38:15.548Z,99221.67
2018-01-15T17:40:45.055Z,99242.33
2018-01-15T17:43:14.524Z,99226.16
2018-01-15T17:45:44.957Z,99236.27
2018-01-15T17:48:15.036Z,99216.86
2018-01-15T17:50:44.535Z,99216.39
2018-01-15T17:53:13.920Z,99202.25
2018-01-15T17:55:43.237Z,99200.08
2018-01-15T17:58:13.160Z,99207.98
2018-01-15T18:00:42.445Z,99201.40
2018-01-15T18:03:11.737Z,99188.30
2018-01-15T18:05:41.427Z,99194.42
2018-01-15T18:08:11.081Z,99176.33
2018-01-15T18:10:40.689Z,99176.68
2018-01-15T18:13:10.009Z,99164.78
2018-01-15T18:15:40.812Z,99159.97
2018-01-15T18:18:10.126Z,99162.19
2018-01-15T18:20:39.413Z,99154.39
2018-01-15T18:23:09.658Z,99147.80
2018-01-15T18:25:38.930Z,99150.44
2018-01-15T18:28:08.331Z,99147.02
2018-01-15T18:30:37.945Z,99137.38
2018-01-15T18:33:07.394Z,99134.73
2018-01-15T18:35:38.011Z,99136.02
2018-01-15T18:38:07.302Z,99138.58
2018-01-15T18:40:36.964Z,99111.75
2018-01-15T18:43:06.707Z,99110.02
2018-01-15T18:45:36.064Z,99113.08
2018-01-15T18:48:06.994Z,99103.89
2018-01-15T18:50:37.270Z,99096.37
2018-01-15T18:53:06.865Z,99100.86
2018-01-15T18:55:36.142Z,99081.98
2018-01-15T18:58:06.179Z,99076.22
2018-01-15T19:00:35.689Z,99073.58
2018-01-15T19:03:05.015Z,99055.98
2018-01-15T19:05:34.290Z,99071.80
2018-01-15T19:08:04.040Z,99057.84
2018-01-15T19:10:33.361Z,99056.99
2018-01-15T19:13:02.669Z,99059.20
2018-01-15T19:15:33.556Z,99053.58
2018-01-15T19:18:02.969Z,99049.63
2018-01-15T19:20:32.229Z,99056.99
2018-01-15T19:23:01.783Z,99049.94
2018-01-15T19:25:31.142Z,99048.20
2018-01-15T19:28:00.811Z,99038.20
2018-01-15T19:30:30.913Z,99016.69
2018-01-15T19:33:00.320Z,99019.02
2018-01-15T19:35:34.385Z,99017.66
2018-01-15T19:38:03.670Z,99023.39
2018-01-15T19:40:34.415Z,99019.02
2018-01-15T19:43:04.272Z,99003.67
2018-01-15T19:45:39.600Z,98989.60
2018-01-15T19:48:14.318Z,98998.05
2018-01-15T19:50:48.957Z,98983.55
2018-01-15T19:53:26.693Z,98980.61
2018-01-15T20:09:33.126Z,98969.84
2018-01-15T20:12:02.917Z,98972.44
2018-01-15T20:14:32.528Z,98963.98
2018-01-15T20:17:02.048Z,98948.02
2018-01-15T20:19:32.621Z,98958.48
2018-01-15T20:22:05.256Z,98948.17
2018-01-15T20:24:35.935Z,98950.64
2018-01-15T20:27:05.426Z,98947.84
2018-01-15T20:29:35.376Z,98949.39
2018-01-15T20:32:05.843Z,98951.38
2018-01-15T20:34:35.485Z,98949.23
2018-01-15T20:37:05.817Z,98939.08
2018-01-15T20:39:35.119Z,98956.17
2018-01-15T20:42:04.404Z,98935.55
2018-01-15T20:44:33.718Z,98926.83
2018-01-15T20:47:04.133Z,98931.80
2018-01-15T20:49:33.941Z,98940.29
2018-01-15T20:52:03.539Z,98936.45
2018-01-15T20:54:33.099Z,98937.58
2018-01-15T20:57:02.446Z,98934.17
2018-01-15T20:59:31.975Z,98926.86
2018-01-15T21:02:01.346Z,98933.56
2018-01-15T21:04:30.787Z,98939.02
2018-01-15T21:07:01.034Z,98921.05
2018-01-15T21:09:30.305Z,98925.47
2018-01-15T21:11:59.811Z,98928.95
2018-01-15T21:14:29.338Z,98915.35
2018-01-15T21:16:58.932Z,98922.95
2018-01-15T21:19:28.320Z,98920.31
2018-01-15T21:21:57.584Z,98916.83
2018-01-15T21:24:27.854Z,98919.97
2018-01-15T21:26:57.254Z,98913.42
2018-01-15T21:29:26.715Z,98914.81
2018-01-15T21:31:56.833Z,98909.16
2018-01-15T21:34:26.870Z,98906.25
2018-01-15T21:36:59.364Z,98907.57
2018-01-15T21:39:29.074Z,98905.71
2018-01-15T21:41:58.498Z,98903.42
2018-01-15T21:44:27.765Z,98903.55
2018-01-15T21:46:57.047Z,98909.36
2018-01-15T21:49:27.088Z,98906.77
2018-01-15T21:51:56.574Z,98906.72
2018-01-15T21:54:26.810Z,98904.51
2018-01-15T21:56:56.860Z,98903.62
2018-01-15T21:59:27.674Z,98898.50
2018-01-15T22:01:57.786Z,98900.08
2018-01-15T22:04:27.981Z,98906.48
2018-01-15T22:06:58.377Z,98905.73
2018-01-15T22:09:27.619Z,98900.03
2018-01-15T22:11:56.963Z,98904.73
2018-01-15T22:14:26.426Z,98908.00
2018-01-15T22:16:56.287Z,98897.69
2018-01-15T22:19:25.763Z,98902.56
2018-01-15T22:21:55.818Z,98900.52
2018-01-15T22:24:25.080Z,98896.37
2018-01-15T22:26:55.944Z,98898.80
2018-01-15T22:29:25.214Z,98896.03
2018-01-15T22:31:55.271Z,98896.80
2018-01-15T22:34:24.869Z,98896.80
2018-01-15T22:36:54.334Z,98892.75
2018-01-15T22:39:23.811Z,98887.52
2018-01-15T22:41:54.877Z,98890.51
2018-01-15T22:44:24.371Z,98884.34
2018-01-15T22:46:55.170Z,98883.09
2018-01-15T22:49:24.420Z,98886.25
2018-01-15T22:51:53.720Z,98880.46
2018-01-15T22:54:23.175Z,98884.42
2018-01-15T22:56:52.727Z,98884.77
2018-01-15T22:59:22.763Z,98886.94
2018-01-15T23:01:52.809Z,98882.85
2018-01-15T23:04:22.073Z,98892.78
2018-01-15T23:06:52.117Z,98891.41
2018-01-15T23:09:21.391Z,98899.16
2018-01-15T23:11:50.761Z,98904.19
2018-01-15T23:14:20.109Z,98891.52
2018-01-15T23:16:50.398Z,98909.49
2018-01-15T23:19:19.691Z,98900.23
2018-01-15T23:21:49.266Z,98900.70
2018-01-15T23:24:19.961Z,98903.52
2018-01-15T23:26:50.578Z,98895.90
2018-01-15T23:29:19.846Z,98904.89
2018-01-15T23:31:49.119Z,98904.21
2018-01-15T23:34:18.453Z,98909.02
2018-01-15T23:36:47.721Z,98924.09
2018-01-15T23:39:17.307Z,98928.17
2018-01-15T23:41:47.532Z,98932.01
2018-01-15T23:44:16.966Z,98934.09
2018-01-15T23:46:46.251Z,98959.83
2018-01-15T23:49:15.501Z,98957.06
2018-01-15T23:51:44.803Z,98968.69
2018-01-15T23:54:31.680Z,98956.77
2018-01-15T23:57:00.752Z,98963.96
2018-01-15T23:59:30.012Z,98966.42
